New Hampton, IA

3:54 AM CST on January 23, 2017 (GMT -0600)
Charles City Municipal | | Change Station
Active Advisory: Winter Storm Watch

Elev 1122 ft 43.07 °N, 92.61 °W | Updated -51 second ago

Overcast
Overcast
32 °F
Feels Like 24 °F
N
9
Wind Variable Wind from NW

Today
High -- | Low -- °F
--% Chance of Precip.
Yesterday
High -- | Low -- °F
Precip. -- in
Pressure 29.83 in
Visibility 2.5 miles
Clouds Overcast 500 ft
Windchill 24 °F
Dew Point 32 °F
Humidity 100%
Rainfall 0.00 in
Snow Depth Not available.
7:32 AM 5:10 PM
Waning Crescent, 19% visible
METAR KCCY 230955Z AUTO 31008KT 2 1/2SM BR OVC005 00/00 A2983 RMK AO2
Pressure 29.83 in
Visibility 2.5 miles
Clouds Overcast 500 ft
Windchill 24 °F
Dew Point 32 °F
Humidity 100%
Rainfall 0.00 in
Snow Depth Not available.
7:32 AM 5:10 PM
Waning Crescent, 19% visible
METAR KCCY 230955Z AUTO 31008KT 2 1/2SM BR OVC005 00/00 A2983 RMK AO2

Get Your Daily Forecast Email!

Thanks for signing up!

Be on the lookout for a verification email in your inbox.

You'll start receiving the daily forecast at 8 AM.

×

10-Day Weather Forecast

Almanac

Astronomy

Jan. 23, 2017 Rise Set
Actual Time
Civil Twilight
Nautical Twilight
Astronomical Twilight
Moon
Length of Visible Light
Length of Day
Tomorrow will be .
, % of the Moon is Illuminated

Today's Extremes

State Highs State Lows

Community

WunderPhotos

Upload Photos

1,962,540 photos uploaded!

WunderBlog® & News

Nearby

Air Quality

  Air Quality AQ Index Pollutant
Not available.

Snow Depth

Station Depth Elevation

Earthquake Activity

City Distance Mag. Time & Date
Minimum magnitude displayed is 2.5.

Coastal Water Temperatures

Place Temperature

Stations

Nearby Weather Stations

Station Location Temp. Windchill Dew Point Humidity Wind Precip. Elev Updated Type
                   

Watches & Warnings

Winter Storm Watch
Issued: 8:48 PM CST Jan. 22, 2017 – National Weather Service

... Winter Storm Watch remains in effect from Tuesday afternoon
through Wednesday afternoon...

* accumulating snow is likely Tuesday afternoon through
Wednesday afternoon.

* Total snow accumulation of 6 inches or more is possible.

* Confidence is low on the location of heaviest snowfall.

* Difficult driving conditions possible... especially due to the
expected wet nature of the snow.

Precautionary/preparedness actions...

A Winter Storm Watch means there is potential for significant
snow accumulation that may impact travel. Continue to monitor the
latest forecasts.



Rogers